Hermiston, Oregon
Current Conditions -  °F | °C
As of 1:53 PM on Saturday 25 Oct 2014 (Local Time) from KHRI Reporting Station
Scattered Clouds Scattered Clouds  
Wind Chill: 58°   Ceiling: Unl
Heat Index: 58°   Visibility: 10mi
Dew Point: 49°   Wind: 3mph
Humidity: 72%   Direction: NA
Pressure: 29.53"   Gusts: NA
Location:  45.84°N, 119.28°W
Report Text: KHRI 252053Z AUTO VRB03KT 10SM SCT120 14/09 A2953 RMK AO2 SLP998 T01440094 58023
Loading
Personal Weather Stations






























Interactive Weather Map
Tropical Storm Tracking
New forecast layout! Learn more

10-Day Weather Forecast

Advertisements
Track Severe Weather on mobile